createdAt,value
2019-02-23T00:00:24.422Z,18.60
2019-02-23T00:01:24.410Z,18.50
2019-02-23T00:02:24.414Z,19.70
2019-02-23T00:03:24.428Z,17.50
2019-02-23T00:04:24.379Z,18.50
2019-02-23T00:05:24.365Z,18.00
2019-02-23T00:06:29.961Z,18.70
2019-02-23T00:07:25.362Z,18.50
2019-02-23T00:08:24.348Z,18.70
2019-02-23T00:09:24.321Z,19.20
2019-02-23T00:10:24.364Z,18.00
2019-02-23T00:11:24.299Z,18.90
2019-02-23T00:12:24.289Z,19.30
2019-02-23T00:13:24.295Z,18.80
2019-02-23T00:14:24.268Z,18.20
2019-02-23T00:15:24.256Z,18.70
2019-02-23T00:16:24.285Z,18.70
2019-02-23T00:17:24.237Z,18.70
2019-02-23T00:18:24.229Z,18.90
2019-02-23T00:19:25.257Z,17.50
2019-02-23T00:20:24.201Z,18.20
2019-02-23T00:21:24.190Z,18.20
2019-02-23T00:22:24.211Z,18.00
2019-02-23T00:23:24.164Z,18.90
2019-02-23T00:24:24.161Z,17.80
2019-02-23T00:25:24.162Z,19.20
2019-02-23T00:26:24.134Z,18.70
2019-02-23T00:27:24.122Z,18.50
2019-02-23T00:28:24.155Z,18.60
2019-02-23T00:29:24.100Z,18.20
2019-02-23T00:30:24.091Z,18.50
2019-02-23T00:31:24.098Z,18.60
2019-02-23T00:32:24.067Z,18.00
2019-02-23T00:33:24.057Z,18.10
2019-02-23T00:34:24.068Z,18.00
2019-02-23T00:35:24.037Z,18.60
2019-02-23T00:36:24.034Z,17.00
2019-02-23T00:37:24.044Z,19.00
2019-02-23T00:38:24.001Z,18.70
2019-02-23T00:39:23.991Z,18.90
2019-02-23T00:40:23.979Z,17.90
2019-02-23T00:41:24.008Z,17.90
2019-02-23T00:42:23.961Z,18.70
2019-02-23T00:43:23.960Z,18.20
2019-02-23T00:44:23.943Z,17.40
2019-02-23T00:45:23.923Z,18.60
2019-02-23T00:46:23.912Z,18.60
2019-02-23T00:47:23.960Z,18.30
2019-02-23T00:48:23.905Z,18.00
2019-02-23T00:49:23.881Z,17.60
2019-02-23T00:50:23.880Z,17.90
2019-02-23T00:51:23.858Z,17.40
2019-02-23T00:52:23.846Z,18.10
2019-02-23T00:53:23.860Z,18.00
2019-02-23T00:54:23.855Z,17.20
2019-02-23T00:55:23.812Z,17.70
2019-02-23T00:56:23.803Z,17.60
2019-02-23T00:57:23.790Z,17.90
2019-02-23T00:58:23.781Z,17.70
2019-02-23T00:59:23.786Z,17.50
2019-02-23T01:00:23.773Z,17.80
2019-02-23T01:01:23.746Z,17.10
2019-02-23T01:02:23.750Z,18.90
2019-02-23T01:03:23.728Z,17.20
2019-02-23T01:04:23.718Z,18.10
2019-02-23T01:05:23.705Z,17.50
2019-02-23T01:06:23.742Z,17.70
2019-02-23T01:07:23.681Z,17.10
2019-02-23T01:08:23.689Z,17.00
2019-02-23T01:09:23.658Z,18.40
2019-02-23T01:10:23.649Z,17.90
2019-02-23T01:11:23.634Z,17.60
2019-02-23T01:12:23.659Z,17.30
2019-02-23T01:13:23.615Z,17.20
2019-02-23T01:14:23.629Z,18.50
2019-02-23T01:15:23.595Z,17.60
2019-02-23T01:16:23.582Z,17.00
2019-02-23T01:17:23.572Z,16.70
2019-02-23T01:18:23.581Z,17.30
2019-02-23T01:19:23.565Z,17.70
2019-02-23T01:20:23.535Z,17.50
2019-02-23T01:21:23.530Z,17.40
2019-02-23T01:22:23.515Z,18.30
2019-02-23T01:23:23.504Z,17.40
2019-02-23T01:24:23.518Z,16.80
2019-02-23T01:25:23.498Z,17.90
2019-02-23T01:26:23.551Z,17.00
2019-02-23T01:27:23.459Z,16.70
2019-02-23T01:28:23.449Z,17.00
2019-02-23T01:29:23.436Z,17.00
2019-02-23T01:30:23.511Z,17.30
2019-02-23T01:31:23.417Z,17.10
2019-02-23T01:32:23.408Z,16.40
2019-02-23T01:33:23.395Z,17.30
2019-02-23T01:34:23.385Z,17.50
2019-02-23T01:35:23.374Z,17.10
2019-02-23T01:36:23.412Z,17.60
2019-02-23T01:37:23.348Z,16.60
2019-02-23T01:38:23.338Z,17.20
2019-02-23T01:39:23.332Z,17.50
2019-02-23T01:40:23.316Z,17.00
2019-02-23T01:41:23.307Z,17.00
2019-02-23T01:42:23.363Z,16.40
2019-02-23T01:43:23.283Z,17.40
2019-02-23T01:44:23.272Z,16.90
2019-02-23T01:45:23.262Z,16.80
2019-02-23T01:46:23.251Z,16.80
2019-02-23T01:47:23.254Z,16.80
2019-02-23T01:48:23.261Z,16.70
2019-02-23T01:49:23.230Z,17.50
2019-02-23T01:50:23.208Z,16.70
2019-02-23T01:51:23.195Z,16.60
2019-02-23T01:52:23.198Z,16.90
2019-02-23T01:53:23.172Z,16.50
2019-02-23T01:54:23.161Z,17.20
2019-02-23T01:55:23.189Z,17.40
2019-02-23T01:56:23.144Z,16.80
2019-02-23T01:57:23.132Z,16.50
2019-02-23T01:58:23.147Z,16.40
2019-02-23T01:59:23.112Z,16.30
2019-02-23T02:00:23.102Z,17.80
2019-02-23T02:01:23.172Z,15.70
2019-02-23T02:02:23.074Z,16.50
2019-02-23T02:03:23.063Z,17.20
2019-02-23T02:04:23.067Z,17.00
2019-02-23T02:05:23.040Z,16.80
2019-02-23T02:06:23.030Z,16.80
2019-02-23T02:07:23.064Z,16.50
2019-02-23T02:08:23.006Z,16.90
2019-02-23T02:09:22.997Z,16.60
2019-02-23T02:10:22.998Z,16.30
2019-02-23T02:11:22.986Z,16.20
2019-02-23T02:12:22.965Z,17.20
2019-02-23T02:13:22.976Z,16.30
2019-02-23T02:14:22.943Z,16.40
2019-02-23T02:15:22.933Z,17.10
2019-02-23T02:16:22.932Z,16.60
2019-02-23T02:17:22.910Z,16.70
2019-02-23T02:18:22.896Z,16.10
2019-02-23T02:19:22.924Z,17.00
2019-02-23T02:20:22.876Z,17.10
2019-02-23T02:21:22.896Z,16.40
2019-02-23T02:22:22.853Z,16.80
2019-02-23T02:23:22.848Z,16.40
2019-02-23T02:24:22.833Z,15.90
2019-02-23T02:25:22.856Z,16.40
2019-02-23T02:26:22.813Z,16.10
2019-02-23T02:27:22.815Z,16.00
2019-02-23T02:28:22.788Z,16.00
2019-02-23T02:29:22.777Z,17.00
2019-02-23T02:30:22.765Z,15.70
2019-02-23T02:31:22.798Z,16.50
2019-02-23T02:32:22.743Z,17.00
2019-02-23T02:33:22.745Z,17.10
2019-02-23T02:34:22.733Z,16.10
2019-02-23T02:35:22.717Z,16.20
2019-02-23T02:36:30.441Z,15.90
2019-02-23T02:37:22.749Z,15.40
2019-02-23T02:38:22.714Z,15.50
2019-02-23T02:39:22.707Z,16.40
2019-02-23T02:40:22.663Z,15.90
2019-02-23T02:41:22.694Z,15.60
2019-02-23T02:42:22.712Z,15.90
2019-02-23T02:43:22.669Z,16.90
2019-02-23T02:44:22.629Z,15.90
2019-02-23T02:45:22.630Z,15.60
2019-02-23T02:46:22.591Z,16.00
2019-02-23T02:47:22.581Z,16.40
2019-02-23T02:48:22.637Z,16.30
2019-02-23T02:49:22.557Z,15.30
2019-02-23T02:50:24.614Z,16.00
2019-02-23T02:51:22.536Z,16.10
2019-02-23T02:52:22.526Z,16.00
2019-02-23T02:53:22.546Z,15.90
2019-02-23T02:54:22.501Z,16.40
2019-02-23T02:55:22.491Z,15.50
2019-02-23T02:56:22.493Z,15.20
2019-02-23T02:57:22.467Z,15.60
2019-02-23T02:58:22.465Z,16.00
2019-02-23T02:59:22.486Z,16.00
2019-02-23T03:00:22.436Z,16.20
2019-02-23T03:01:22.445Z,15.20
2019-02-23T03:02:22.415Z,15.60
2019-02-23T03:03:22.400Z,15.40
2019-02-23T03:04:22.391Z,15.70
2019-02-23T03:05:22.419Z,16.20
2019-02-23T03:06:22.374Z,15.80
2019-02-23T03:07:22.375Z,15.50
2019-02-23T03:08:22.378Z,15.00
2019-02-23T03:09:22.359Z,14.70
2019-02-23T03:10:22.336Z,15.10
2019-02-23T03:11:22.317Z,15.50
2019-02-23T03:12:22.339Z,15.90
2019-02-23T03:13:22.294Z,14.80
2019-02-23T03:14:22.280Z,15.80
2019-02-23T03:15:22.306Z,16.20
2019-02-23T03:16:22.258Z,14.50
2019-02-23T03:17:22.247Z,15.50
2019-02-23T03:18:22.277Z,15.10
2019-02-23T03:19:22.230Z,14.90
2019-02-23T03:20:22.219Z,15.70
2019-02-23T03:21:22.238Z,15.60
2019-02-23T03:22:22.195Z,16.20
2019-02-23T03:23:22.182Z,14.90
2019-02-23T03:24:22.192Z,15.30
2019-02-23T03:25:22.212Z,15.50
2019-02-23T03:26:22.151Z,15.50
2019-02-23T03:27:22.161Z,15.40
2019-02-23T03:28:22.127Z,14.60
2019-02-23T03:29:22.118Z,16.00
2019-02-23T03:30:22.118Z,14.80
2019-02-23T03:31:22.143Z,15.00
2019-02-23T03:32:22.081Z,15.10
2019-02-23T03:33:22.085Z,14.20
2019-02-23T03:34:22.066Z,15.20
2019-02-23T03:35:22.102Z,14.30
2019-02-23T03:36:22.074Z,14.30
2019-02-23T03:37:22.046Z,15.10
2019-02-23T03:38:22.015Z,14.50
2019-02-23T03:39:22.010Z,14.60
2019-02-23T03:40:21.992Z,14.50
2019-02-23T03:41:21.985Z,15.10
2019-02-23T03:42:22.003Z,15.10
2019-02-23T03:43:21.987Z,15.30
2019-02-23T03:44:21.951Z,14.90
2019-02-23T03:45:21.942Z,14.70
2019-02-23T03:46:21.935Z,14.60
2019-02-23T03:47:21.915Z,14.70
2019-02-23T03:48:21.972Z,14.10
2019-02-23T03:49:21.892Z,14.60
2019-02-23T03:50:21.904Z,14.50
2019-02-23T03:51:21.881Z,13.90
2019-02-23T03:52:21.860Z,14.20
2019-02-23T03:53:21.850Z,14.80
2019-02-23T03:54:21.874Z,13.90
2019-02-23T03:55:21.838Z,13.30
2019-02-23T03:56:21.816Z,14.10
2019-02-23T03:57:21.812Z,13.60
2019-02-23T03:58:21.797Z,13.90
2019-02-23T03:59:21.782Z,14.30
2019-02-23T04:00:21.849Z,14.40
2019-02-23T04:01:21.764Z,13.90
2019-02-23T04:02:21.751Z,14.00
2019-02-23T04:03:21.736Z,13.70
2019-02-23T04:04:21.740Z,14.10
2019-02-23T04:05:21.721Z,14.50
2019-02-23T04:06:21.758Z,15.20
2019-02-23T04:07:21.700Z,13.30
2019-02-23T04:08:21.689Z,14.30
2019-02-23T04:09:21.676Z,15.10
2019-02-23T04:10:21.666Z,14.70
2019-02-23T04:11:21.650Z,13.60
2019-02-23T04:12:21.684Z,14.00
2019-02-23T04:13:21.638Z,15.20
2019-02-23T04:14:21.621Z,14.40
2019-02-23T04:15:21.634Z,14.60
2019-02-23T04:16:21.600Z,14.50
2019-02-23T04:17:21.587Z,14.10
2019-02-23T04:18:21.576Z,14.10
2019-02-23T04:19:21.603Z,14.00
2019-02-23T04:20:21.555Z,14.70
2019-02-23T04:21:21.553Z,13.90
2019-02-23T04:22:21.532Z,14.00
2019-02-23T04:23:21.521Z,14.00
2019-02-23T04:24:21.512Z,14.20
2019-02-23T04:25:21.548Z,15.00
2019-02-23T04:26:21.507Z,15.20
2019-02-23T04:27:21.479Z,14.60
2019-02-23T04:28:21.467Z,14.80
2019-02-23T04:29:21.458Z,14.40
2019-02-23T04:30:21.450Z,14.30
2019-02-23T04:31:21.489Z,14.10
2019-02-23T04:32:21.427Z,14.20
2019-02-23T04:33:21.410Z,14.90
2019-02-23T04:34:21.396Z,14.50
2019-02-23T04:35:21.389Z,14.30
2019-02-23T04:36:21.383Z,14.50
2019-02-23T04:37:21.392Z,14.20
2019-02-23T04:38:21.414Z,14.30
2019-02-23T04:39:21.347Z,14.20
2019-02-23T04:40:21.414Z,14.10
2019-02-23T04:41:21.324Z,14.30
2019-02-23T04:42:21.313Z,14.50
2019-02-23T04:43:21.330Z,14.10
2019-02-23T04:44:21.303Z,14.50
2019-02-23T04:45:21.293Z,13.70
2019-02-23T04:46:21.266Z,15.10
2019-02-23T04:47:21.268Z,14.40
2019-02-23T04:48:21.244Z,14.50
2019-02-23T04:49:21.250Z,14.10
2019-02-23T04:50:21.285Z,14.30
2019-02-23T04:51:21.219Z,14.80
2019-02-23T04:52:21.215Z,14.30
2019-02-23T04:53:21.204Z,14.70
2019-02-23T04:54:21.178Z,14.70
2019-02-23T04:55:21.187Z,13.90
2019-02-23T04:56:21.162Z,14.70
2019-02-23T04:57:21.189Z,14.80
2019-02-23T04:58:21.138Z,14.10
2019-02-23T04:59:21.129Z,14.70
2019-02-23T05:00:21.117Z,15.30
2019-02-23T05:01:21.124Z,14.60
2019-02-23T05:02:21.093Z,14.00
2019-02-23T05:03:21.094Z,15.30
2019-02-23T05:04:21.076Z,15.00
2019-02-23T05:05:21.061Z,14.90
2019-02-23T05:06:31.792Z,15.00
2019-02-23T05:07:28.750Z,15.90
2019-02-23T05:08:28.781Z,15.70
2019-02-23T05:09:21.080Z,15.00
2019-02-23T05:10:21.039Z,14.30
2019-02-23T05:11:21.038Z,14.40
2019-02-23T05:12:21.064Z,15.00
2019-02-23T05:13:21.136Z,14.60
2019-02-23T05:14:20.990Z,14.50
2019-02-23T05:15:20.955Z,14.60
2019-02-23T05:16:20.958Z,13.70
2019-02-23T05:17:20.932Z,14.40
2019-02-23T05:18:20.921Z,14.00
2019-02-23T05:19:20.956Z,14.20
2019-02-23T05:20:20.900Z,14.20
2019-02-23T05:21:26.488Z,14.40
2019-02-23T05:22:21.872Z,14.70
2019-02-23T05:23:20.863Z,13.90
2019-02-23T05:24:20.868Z,14.90
2019-02-23T05:25:20.859Z,15.10
2019-02-23T05:26:20.831Z,14.70
2019-02-23T05:27:20.821Z,14.40
2019-02-23T05:28:20.809Z,14.50
2019-02-23T05:29:20.797Z,15.80
2019-02-23T05:30:20.814Z,15.40
2019-02-23T05:31:22.250Z,15.00
2019-02-23T05:32:20.777Z,15.30
2019-02-23T05:33:20.762Z,15.60
2019-02-23T05:34:20.747Z,14.90
2019-02-23T05:35:20.755Z,13.80
2019-02-23T05:36:20.738Z,15.40
2019-02-23T05:37:20.722Z,14.80
2019-02-23T05:38:20.704Z,16.50
2019-02-23T05:39:20.693Z,15.20
2019-02-23T05:40:20.719Z,15.50
2019-02-23T05:41:20.690Z,15.30
2019-02-23T05:42:20.686Z,15.90
2019-02-23T05:43:20.651Z,16.10
2019-02-23T05:44:20.637Z,16.50
2019-02-23T05:45:20.628Z,16.00
2019-02-23T05:46:20.613Z,15.90
2019-02-23T05:47:20.619Z,16.60
2019-02-23T05:48:20.605Z,16.50
2019-02-23T05:49:20.586Z,15.70
2019-02-23T05:50:20.572Z,15.00
2019-02-23T05:51:20.584Z,15.20
2019-02-23T05:52:20.554Z,14.90
2019-02-23T05:53:20.570Z,16.50
2019-02-23T05:54:20.530Z,15.30
2019-02-23T05:55:20.523Z,16.30
2019-02-23T05:56:20.537Z,16.00
2019-02-23T05:57:20.497Z,16.40
2019-02-23T05:58:20.484Z,17.10
2019-02-23T05:59:20.492Z,16.10
2019-02-23T06:00:20.468Z,16.20
2019-02-23T06:01:20.471Z,17.00
2019-02-23T06:02:20.490Z,17.00
2019-02-23T06:03:20.435Z,17.10
2019-02-23T06:04:20.432Z,15.90
2019-02-23T06:05:20.410Z,17.20
2019-02-23T06:06:20.396Z,16.50
2019-02-23T06:07:20.392Z,16.90
2019-02-23T06:08:20.409Z,15.90
2019-02-23T06:09:20.390Z,15.70
2019-02-23T06:10:20.353Z,16.60
2019-02-23T06:11:20.342Z,16.60
2019-02-23T06:12:20.335Z,16.30
2019-02-23T06:13:20.335Z,16.40
2019-02-23T06:14:20.333Z,16.10
2019-02-23T06:15:20.314Z,16.20
2019-02-23T06:16:20.341Z,16.10
2019-02-23T06:17:20.289Z,16.60
2019-02-23T06:18:20.266Z,16.30
2019-02-23T06:19:20.256Z,16.60
2019-02-23T06:20:20.244Z,16.60
2019-02-23T06:21:20.231Z,16.60
2019-02-23T06:22:20.290Z,16.10
2019-02-23T06:23:20.244Z,16.40
2019-02-23T06:24:20.202Z,17.00
2019-02-23T06:25:20.195Z,16.20
2019-02-23T06:26:20.182Z,15.80
2019-02-23T06:27:20.168Z,16.10
2019-02-23T06:28:20.226Z,16.20
2019-02-23T06:29:20.144Z,16.50
2019-02-23T06:30:20.142Z,16.50
2019-02-23T06:31:20.134Z,16.40
2019-02-23T06:32:20.114Z,16.00
2019-02-23T06:33:20.123Z,15.90
2019-02-23T06:34:20.125Z,15.80
2019-02-23T06:35:20.084Z,16.40
2019-02-23T06:36:20.071Z,15.80
2019-02-23T06:37:20.059Z,16.70
2019-02-23T06:38:20.052Z,15.80
2019-02-23T06:39:20.057Z,16.00
2019-02-23T06:40:20.058Z,15.60
2019-02-23T06:41:20.026Z,15.70
2019-02-23T06:42:20.007Z,15.60
2019-02-23T06:43:19.995Z,16.30
2019-02-23T06:44:19.986Z,15.80
2019-02-23T06:45:20.034Z,15.70
2019-02-23T06:46:19.980Z,15.80
2019-02-23T06:47:19.951Z,16.10
2019-02-23T06:48:20.180Z,15.80
2019-02-23T06:49:19.930Z,15.70
2019-02-23T06:50:19.936Z,15.00
2019-02-23T06:51:19.919Z,15.80
2019-02-23T06:52:19.942Z,16.00
2019-02-23T06:53:19.891Z,15.50
2019-02-23T06:54:19.883Z,16.20
2019-02-23T06:55:19.870Z,16.30
2019-02-23T06:56:19.864Z,15.80
2019-02-23T06:57:19.878Z,15.90
2019-02-23T06:58:19.836Z,16.10
2019-02-23T06:59:19.817Z,16.80
2019-02-23T07:00:19.819Z,15.70
2019-02-23T07:01:19.817Z,15.50
2019-02-23T07:02:19.786Z,15.10
2019-02-23T07:03:19.846Z,15.40
2019-02-23T07:04:19.788Z,15.70
2019-02-23T07:05:19.755Z,15.50
2019-02-23T07:06:19.770Z,15.30
2019-02-23T07:07:19.756Z,15.80
2019-02-23T07:08:19.730Z,15.80
2019-02-23T07:09:19.764Z,14.90
2019-02-23T07:10:19.701Z,15.50
2019-02-23T07:11:19.692Z,15.20
2019-02-23T07:12:19.677Z,15.50
2019-02-23T07:13:19.692Z,14.70
2019-02-23T07:14:19.658Z,14.70
2019-02-23T07:15:19.690Z,15.60
2019-02-23T07:16:19.638Z,14.90
2019-02-23T07:17:19.642Z,15.10
2019-02-23T07:18:19.614Z,15.00
2019-02-23T07:19:19.628Z,14.60
2019-02-23T07:20:19.592Z,15.90
2019-02-23T07:21:19.588Z,15.30
2019-02-23T07:22:19.606Z,14.90
2019-02-23T07:23:19.561Z,16.30
2019-02-23T07:24:19.563Z,14.90
2019-02-23T07:25:19.557Z,15.00
2019-02-23T07:26:19.530Z,14.60
2019-02-23T07:27:19.513Z,16.00
2019-02-23T07:28:19.559Z,15.00
2019-02-23T07:29:19.500Z,15.80
2019-02-23T07:30:19.482Z,15.70
2019-02-23T07:31:19.486Z,15.20
2019-02-23T07:32:19.462Z,15.20
2019-02-23T07:33:32.064Z,15.20
2019-02-23T07:34:20.487Z,15.60
2019-02-23T07:35:19.428Z,14.40
2019-02-23T07:36:19.423Z,14.10
2019-02-23T07:37:19.432Z,15.20
2019-02-23T07:38:19.403Z,15.50
2019-02-23T07:39:19.383Z,14.80
2019-02-23T07:40:19.374Z,14.70
2019-02-23T07:41:19.433Z,14.40
2019-02-23T07:42:19.352Z,15.20
2019-02-23T07:43:19.355Z,14.50
2019-02-23T07:44:19.337Z,14.90
2019-02-23T07:45:19.334Z,16.30
2019-02-23T07:46:19.309Z,15.20
2019-02-23T07:47:19.345Z,15.50
2019-02-23T07:48:19.309Z,15.20
2019-02-23T07:49:19.276Z,15.30
2019-02-23T07:50:19.263Z,15.10
2019-02-23T07:51:19.267Z,15.00
2019-02-23T07:52:26.393Z,14.90
2019-02-23T07:53:20.299Z,14.90
2019-02-23T07:54:19.223Z,15.50
2019-02-23T07:55:19.211Z,15.30
2019-02-23T07:56:19.201Z,14.90
2019-02-23T07:57:19.190Z,15.00
2019-02-23T07:58:19.179Z,15.00
2019-02-23T07:59:19.239Z,14.60
2019-02-23T08:00:19.157Z,15.20
2019-02-23T08:01:19.142Z,15.00
2019-02-23T08:02:19.135Z,15.10
2019-02-23T08:03:19.122Z,14.60
2019-02-23T08:04:19.113Z,14.40
2019-02-23T08:05:19.160Z,14.60
2019-02-23T08:06:19.109Z,15.10
2019-02-23T08:07:19.084Z,15.00
2019-02-23T08:08:19.078Z,15.10
2019-02-23T08:09:19.063Z,15.50
2019-02-23T08:10:19.048Z,15.40
2019-02-23T08:11:19.073Z,15.20
2019-02-23T08:12:19.043Z,15.50
2019-02-23T08:13:19.015Z,16.10
2019-02-23T08:14:19.004Z,15.50
2019-02-23T08:15:18.994Z,15.00
2019-02-23T08:16:19.028Z,14.40
2019-02-23T08:17:18.981Z,14.70
2019-02-23T08:18:18.987Z,14.80
2019-02-23T08:19:18.989Z,14.30
2019-02-23T08:20:18.937Z,15.40
2019-02-23T08:21:18.926Z,14.20
2019-02-23T08:22:18.969Z,15.10
2019-02-23T08:23:18.903Z,15.20
2019-02-23T08:24:18.908Z,14.80
2019-02-23T08:25:18.908Z,15.30
2019-02-23T08:26:18.882Z,14.90
2019-02-23T08:27:18.861Z,14.70
2019-02-23T08:28:18.903Z,16.30
2019-02-23T08:29:18.900Z,15.40
2019-02-23T08:30:18.854Z,15.70
2019-02-23T08:31:18.820Z,15.20
2019-02-23T08:32:18.808Z,15.40
2019-02-23T08:33:18.794Z,14.70
2019-02-23T08:34:18.789Z,15.00
2019-02-23T08:35:18.846Z,14.90
2019-02-23T08:36:18.761Z,14.60
2019-02-23T08:37:18.755Z,15.60
2019-02-23T08:38:18.739Z,15.70
2019-02-23T08:39:18.727Z,15.00
2019-02-23T08:40:18.751Z,14.50
2019-02-23T08:41:18.764Z,16.20
2019-02-23T08:42:18.701Z,15.30
2019-02-23T08:43:20.727Z,15.30
2019-02-23T08:44:18.684Z,15.70
2019-02-23T08:45:18.666Z,15.30
2019-02-23T08:46:18.668Z,15.80
2019-02-23T08:47:18.657Z,15.60
2019-02-23T08:48:18.681Z,15.30
2019-02-23T08:49:18.623Z,16.00
2019-02-23T08:50:18.609Z,15.40
2019-02-23T08:51:18.629Z,15.80
2019-02-23T08:52:18.603Z,15.10
2019-02-23T08:53:18.580Z,15.60
2019-02-23T08:54:18.571Z,15.40
2019-02-23T08:55:18.622Z,15.30
2019-02-23T08:56:18.551Z,15.00
2019-02-23T08:57:18.531Z,15.10
2019-02-23T08:58:18.532Z,15.20
2019-02-23T08:59:18.511Z,15.40
2019-02-23T09:00:18.498Z,15.10
2019-02-23T09:01:18.517Z,15.80
2019-02-23T09:02:18.483Z,15.90
2019-02-23T09:03:18.489Z,14.80
2019-02-23T09:04:18.461Z,14.90
2019-02-23T09:05:18.442Z,15.70
2019-02-23T09:06:18.432Z,14.70
2019-02-23T09:07:18.467Z,14.50
2019-02-23T09:08:18.411Z,14.60
2019-02-23T09:09:18.414Z,15.00
2019-02-23T09:10:18.407Z,14.70
2019-02-23T09:11:18.378Z,14.80
2019-02-23T09:12:18.365Z,15.00
2019-02-23T09:13:18.422Z,15.40
2019-02-23T09:14:18.345Z,15.70
2019-02-23T09:15:18.333Z,15.20
2019-02-23T09:16:18.338Z,15.50
2019-02-23T09:17:18.312Z,15.10
2019-02-23T09:18:18.305Z,14.90
2019-02-23T09:19:18.357Z,15.00
2019-02-23T09:20:28.633Z,15.30
2019-02-23T09:21:19.267Z,14.90
2019-02-23T09:22:18.261Z,14.70
2019-02-23T09:23:18.250Z,14.20
2019-02-23T09:24:18.232Z,15.60
2019-02-23T09:25:18.233Z,15.00
2019-02-23T09:26:18.271Z,14.80
2019-02-23T09:27:18.201Z,15.40
2019-02-23T09:28:18.193Z,15.30
2019-02-23T09:29:18.180Z,15.10
2019-02-23T09:30:18.189Z,15.20
2019-02-23T09:31:18.158Z,14.50
2019-02-23T09:32:18.201Z,14.00
2019-02-23T09:33:18.137Z,14.50
2019-02-23T09:34:18.128Z,14.70
2019-02-23T09:35:18.126Z,14.90
2019-02-23T09:36:18.130Z,15.50
2019-02-23T09:37:18.094Z,14.40
2019-02-23T09:38:18.123Z,13.90
2019-02-23T09:39:18.068Z,14.80
2019-02-23T09:40:18.057Z,15.20
2019-02-23T09:41:18.064Z,15.50
2019-02-23T09:42:18.052Z,14.40
2019-02-23T09:43:18.024Z,14.30
2019-02-23T09:44:18.075Z,15.30
2019-02-23T09:45:18.004Z,14.30
2019-02-23T09:46:17.989Z,14.90
2019-02-23T09:47:17.999Z,14.10
2019-02-23T09:48:17.988Z,14.50
2019-02-23T09:49:17.960Z,14.50
2019-02-23T09:50:17.988Z,14.50
2019-02-23T09:51:17.947Z,14.90
2019-02-23T09:52:17.925Z,14.80
2019-02-23T09:53:17.933Z,14.70
2019-02-23T09:54:17.913Z,15.30
2019-02-23T09:55:17.913Z,15.00
2019-02-23T09:56:17.887Z,15.10
2019-02-23T09:57:17.870Z,15.30
2019-02-23T09:58:17.901Z,14.90
2019-02-23T09:59:17.874Z,15.10
2019-02-23T10:00:17.846Z,14.40
2019-02-23T10:01:17.831Z,14.60
2019-02-23T10:02:17.814Z,15.10
2019-02-23T10:03:17.817Z,15.50
2019-02-23T10:04:17.792Z,14.40
2019-02-23T10:05:17.845Z,14.60
2019-02-23T10:06:17.806Z,15.10
2019-02-23T10:07:17.760Z,14.30
2019-02-23T10:08:17.751Z,14.40
2019-02-23T10:09:17.742Z,14.50
2019-02-23T10:10:17.730Z,14.20
2019-02-23T10:11:17.727Z,14.70
2019-02-23T10:12:17.753Z,14.90
2019-02-23T10:13:17.693Z,14.90
2019-02-23T10:14:17.681Z,14.80
2019-02-23T10:15:17.673Z,14.90
2019-02-23T10:16:17.665Z,14.70
2019-02-23T10:17:17.651Z,14.30
2019-02-23T10:18:17.712Z,13.40
2019-02-23T10:19:17.631Z,14.20
2019-02-23T10:20:17.621Z,14.50
2019-02-23T10:21:17.612Z,15.30
2019-02-23T10:22:17.602Z,15.20
2019-02-23T10:23:21.921Z,14.30
2019-02-23T10:24:17.594Z,15.30
2019-02-23T10:25:17.607Z,15.40
2019-02-23T10:26:17.557Z,14.50
2019-02-23T10:27:17.542Z,14.80
2019-02-23T10:28:17.532Z,15.20
2019-02-23T10:29:17.519Z,13.60
2019-02-23T10:30:17.527Z,13.30
2019-02-23T10:31:17.546Z,13.80
2019-02-23T10:32:17.509Z,14.50
2019-02-23T10:33:17.492Z,14.20
2019-02-23T10:34:17.467Z,14.30
2019-02-23T10:35:17.454Z,14.10
2019-02-23T10:36:17.459Z,14.70
2019-02-23T10:37:17.431Z,15.00
2019-02-23T10:38:17.482Z,14.10
2019-02-23T10:39:17.411Z,14.90
2019-02-23T10:40:17.398Z,15.70
2019-02-23T10:41:17.387Z,14.30
2019-02-23T10:42:17.396Z,15.20
2019-02-23T10:43:17.364Z,14.60
2019-02-23T10:44:17.398Z,14.10
2019-02-23T10:45:17.345Z,13.10
2019-02-23T10:46:17.329Z,13.90
2019-02-23T10:47:17.322Z,13.70
2019-02-23T10:48:17.326Z,13.80
2019-02-23T10:49:17.297Z,13.40
2019-02-23T10:50:17.333Z,14.10
2019-02-23T10:51:17.278Z,13.50
2019-02-23T10:52:17.281Z,14.10
2019-02-23T10:53:17.255Z,13.40
2019-02-23T10:54:17.257Z,13.80
2019-02-23T10:55:17.230Z,13.30
2019-02-23T10:56:17.295Z,13.40
2019-02-23T10:57:17.211Z,13.40
2019-02-23T10:58:17.213Z,13.40
2019-02-23T10:59:17.190Z,13.20
2019-02-23T11:00:17.191Z,13.60
2019-02-23T11:01:17.170Z,12.30
2019-02-23T11:02:17.233Z,12.60
2019-02-23T11:03:17.144Z,13.30
2019-02-23T11:04:17.145Z,13.60
2019-02-23T11:05:17.124Z,13.70
2019-02-23T11:06:17.143Z,13.50
2019-02-23T11:07:17.100Z,12.90
2019-02-23T11:08:17.125Z,13.30
2019-02-23T11:09:17.080Z,13.30
2019-02-23T11:10:17.070Z,13.30
2019-02-23T11:11:17.057Z,13.50
2019-02-23T11:12:17.058Z,12.80
2019-02-23T11:13:17.051Z,13.70
2019-02-23T11:14:17.070Z,13.00
2019-02-23T11:15:24.575Z,13.30
2019-02-23T11:16:16.995Z,13.00
2019-02-23T11:17:17.007Z,12.80
2019-02-23T11:18:16.995Z,12.70
2019-02-23T11:19:16.961Z,12.70
2019-02-23T11:20:16.957Z,12.80
2019-02-23T11:21:16.953Z,12.20
2019-02-23T11:22:16.930Z,11.30
2019-02-23T11:23:16.933Z,12.60
2019-02-23T11:24:18.413Z,13.00
2019-02-23T11:25:16.897Z,11.70
2019-02-23T11:26:16.888Z,11.80
2019-02-23T11:27:17.181Z,12.20
2019-02-23T11:28:17.167Z,11.70
2019-02-23T11:29:16.870Z,12.10
2019-02-23T11:30:16.916Z,12.30
2019-02-23T11:31:16.829Z,12.00
2019-02-23T11:32:16.818Z,11.70
2019-02-23T11:33:16.806Z,12.10
2019-02-23T11:34:16.845Z,11.40
2019-02-23T11:35:17.600Z,12.30
2019-02-23T11:36:17.065Z,12.50
2019-02-23T11:37:16.762Z,11.40
2019-02-23T11:38:16.877Z,12.90
2019-02-23T11:39:16.740Z,11.60
2019-02-23T11:40:16.734Z,11.70
2019-02-23T11:41:16.734Z,11.20
2019-02-23T11:42:16.706Z,12.30
2019-02-23T11:43:16.696Z,11.40
2019-02-23T11:44:16.721Z,10.80
2019-02-23T11:45:16.671Z,11.30
2019-02-23T11:46:16.663Z,11.20
2019-02-23T11:47:16.652Z,11.80
2019-02-23T11:48:16.641Z,11.30
2019-02-23T11:49:16.635Z,11.20
2019-02-23T11:50:16.639Z,11.30
2019-02-23T11:51:16.612Z,11.40
2019-02-23T11:52:16.607Z,11.80
2019-02-23T11:53:16.604Z,11.30
2019-02-23T11:54:16.574Z,11.10
2019-02-23T11:55:16.563Z,10.90
2019-02-23T11:56:16.563Z,10.70
2019-02-23T11:57:16.555Z,10.70
2019-02-23T11:58:16.542Z,10.40
2019-02-23T11:59:16.521Z,10.30
2019-02-23T12:00:16.516Z,10.90
2019-02-23T12:01:16.493Z,10.70
2019-02-23T12:02:16.486Z,10.80
2019-02-23T12:03:16.494Z,10.20
2019-02-23T12:04:16.479Z,9.90
2019-02-23T12:05:16.450Z,10.50
2019-02-23T12:06:16.438Z,10.80
2019-02-23T12:07:16.432Z,10.00
2019-02-23T12:08:16.416Z,10.30
2019-02-23T12:09:16.426Z,9.70
2019-02-23T12:10:16.415Z,10.40
2019-02-23T12:11:16.382Z,10.80
2019-02-23T12:12:16.373Z,9.30
2019-02-23T12:13:16.361Z,10.30
2019-02-23T12:14:16.351Z,10.00
2019-02-23T12:15:16.349Z,10.50
2019-02-23T12:16:16.341Z,10.20
2019-02-23T12:17:16.316Z,10.20
2019-02-23T12:18:16.314Z,10.90
2019-02-23T12:19:16.295Z,10.60
2019-02-23T12:20:16.290Z,11.40
2019-02-23T12:21:16.279Z,11.20
2019-02-23T12:22:16.273Z,10.60
2019-02-23T12:23:16.247Z,10.80
2019-02-23T12:24:16.238Z,11.10
2019-02-23T12:25:16.489Z,11.40
2019-02-23T12:26:16.220Z,10.60
2019-02-23T12:27:16.215Z,10.60
2019-02-23T12:28:16.210Z,10.40
2019-02-23T12:29:16.184Z,10.20
2019-02-23T12:30:16.170Z,9.90
2019-02-23T12:31:16.163Z,10.60
2019-02-23T12:32:16.149Z,10.80
2019-02-23T12:33:16.155Z,10.00
2019-02-23T12:34:16.145Z,11.00
2019-02-23T12:35:16.113Z,10.10
2019-02-23T12:36:16.107Z,10.30
2019-02-23T12:37:16.104Z,9.80
2019-02-23T12:38:16.080Z,8.70
2019-02-23T12:39:16.085Z,9.10
2019-02-23T12:40:16.070Z,9.60
2019-02-23T12:41:16.048Z,9.50
2019-02-23T12:42:16.043Z,9.30
2019-02-23T12:43:16.041Z,9.60
2019-02-23T12:44:16.018Z,9.70
2019-02-23T12:45:16.025Z,9.00
2019-02-23T12:46:16.002Z,9.40
2019-02-23T12:47:15.997Z,10.70
2019-02-23T12:48:15.968Z,10.50
2019-02-23T12:49:15.957Z,10.40
2019-02-23T12:50:15.959Z,11.20
2019-02-23T12:51:15.949Z,11.10
2019-02-23T12:52:15.924Z,10.90
2019-02-23T12:53:15.913Z,10.30